createdAt,value
2018-02-02T00:02:02.376Z,87.75
2018-02-02T00:04:28.508Z,88.51
2018-02-02T00:06:54.656Z,87.85
2018-02-02T00:09:20.821Z,87.72
2018-02-02T00:11:46.978Z,87.50
2018-02-02T00:14:13.154Z,87.29
2018-02-02T00:16:39.312Z,87.13
2018-02-02T00:19:05.428Z,87.67
2018-02-02T00:21:31.711Z,87.12
2018-02-02T00:23:57.892Z,86.86
2018-02-02T00:26:24.052Z,87.54
2018-02-02T00:28:50.180Z,87.18
2018-02-02T00:31:16.400Z,87.21
2018-02-02T00:33:42.540Z,86.10
2018-02-02T00:36:08.716Z,85.86
2018-02-02T00:38:34.949Z,85.87
2018-02-02T00:41:01.079Z,86.14
2018-02-02T00:43:27.249Z,85.79
2018-02-02T00:45:53.554Z,84.72
2018-02-02T00:48:19.696Z,84.65
2018-02-02T00:50:51.943Z,85.42
2018-02-02T00:53:18.240Z,85.37
2018-02-02T00:55:44.380Z,84.63
2018-02-02T00:58:10.561Z,84.42
2018-02-02T01:00:36.772Z,84.34
2018-02-02T01:03:02.937Z,85.32
2018-02-02T01:05:29.083Z,84.83
2018-02-02T01:07:55.343Z,84.86
2018-02-02T01:10:21.476Z,84.54
2018-02-02T01:12:47.622Z,83.29
2018-02-02T01:15:13.779Z,83.67
2018-02-02T01:17:39.901Z,83.97
2018-02-02T01:20:06.052Z,83.39
2018-02-02T01:22:32.198Z,82.22
2018-02-02T01:24:58.389Z,83.88
2018-02-02T01:27:24.560Z,84.07
2018-02-02T01:29:50.741Z,83.88
2018-02-02T01:32:16.887Z,84.00
2018-02-02T01:34:43.073Z,81.91
2018-02-02T01:37:09.243Z,82.69
2018-02-02T01:39:35.368Z,81.95
2018-02-02T01:42:01.522Z,82.08
2018-02-02T01:44:27.698Z,82.37
2018-02-02T01:46:53.866Z,82.55
2018-02-02T01:49:20.027Z,82.79
2018-02-02T01:51:46.172Z,82.52
2018-02-02T01:54:12.352Z,82.40
2018-02-02T01:56:38.487Z,82.72
2018-02-02T01:59:04.666Z,82.18
2018-02-02T02:01:30.897Z,82.99
2018-02-02T02:03:57.067Z,82.52
2018-02-02T02:06:23.215Z,82.56
2018-02-02T02:08:49.453Z,82.11
2018-02-02T02:11:15.592Z,82.15
2018-02-02T02:13:41.731Z,81.64
2018-02-02T02:16:07.971Z,82.48
2018-02-02T02:18:34.870Z,82.58
2018-02-02T02:21:01.017Z,82.97
2018-02-02T02:23:27.214Z,82.73
2018-02-02T02:25:53.376Z,82.60
2018-02-02T02:28:19.512Z,83.47
2018-02-02T02:30:45.760Z,82.51
2018-02-02T02:33:11.880Z,82.54
2018-02-02T02:35:38.019Z,82.35
2018-02-02T02:38:04.212Z,81.55
2018-02-02T02:40:30.360Z,81.46
2018-02-02T02:42:56.535Z,81.27
2018-02-02T02:45:22.675Z,81.66
2018-02-02T02:47:48.823Z,80.55
2018-02-02T02:50:15.011Z,79.94
2018-02-02T02:52:41.175Z,79.87
2018-02-02T02:55:07.330Z,79.78
2018-02-02T02:57:33.464Z,80.55
2018-02-02T02:59:59.791Z,80.78
2018-02-02T03:02:26.544Z,80.17
2018-02-02T03:04:52.670Z,79.97
2018-02-02T03:07:18.843Z,80.16
2018-02-02T03:09:44.983Z,80.54
2018-02-02T03:12:11.137Z,80.21
2018-02-02T03:14:37.389Z,80.39
2018-02-02T03:17:03.518Z,80.69
2018-02-02T03:19:29.664Z,81.28
2018-02-02T03:21:55.815Z,82.15
2018-02-02T03:24:21.988Z,81.28
2018-02-02T03:26:48.128Z,81.58
2018-02-02T03:29:14.314Z,80.58
2018-02-02T03:31:40.487Z,80.99
2018-02-02T03:34:06.718Z,81.91
2018-02-02T03:36:32.964Z,81.57
2018-02-02T03:38:59.129Z,81.67
2018-02-02T03:41:25.246Z,81.07
2018-02-02T03:43:51.409Z,81.74
2018-02-02T03:46:17.556Z,80.92
2018-02-02T03:48:43.728Z,80.79
2018-02-02T03:51:09.949Z,81.22
2018-02-02T03:53:36.109Z,81.15
2018-02-02T03:56:02.244Z,81.03
2018-02-02T03:58:28.442Z,80.15
2018-02-02T04:00:55.270Z,80.71
2018-02-02T04:03:21.473Z,82.42
2018-02-02T04:05:47.646Z,83.23
2018-02-02T04:08:13.788Z,84.89
2018-02-02T04:10:39.956Z,85.29
2018-02-02T04:13:06.134Z,87.32
2018-02-02T04:15:32.313Z,87.81
2018-02-02T04:17:58.441Z,88.11
2018-02-02T04:20:24.674Z,88.27
2018-02-02T04:22:50.825Z,88.51
2018-02-02T04:25:18.591Z,88.68
2018-02-02T04:27:44.811Z,88.66
2018-02-02T04:30:11.028Z,89.22
2018-02-02T04:32:37.237Z,88.78
2018-02-02T04:35:10.351Z,89.59
2018-02-02T04:37:36.537Z,89.76
2018-02-02T04:40:02.670Z,89.08
2018-02-02T04:42:28.899Z,89.52
2018-02-02T04:44:55.054Z,89.35
2018-02-02T04:47:21.208Z,89.28
2018-02-02T04:49:47.439Z,88.36
2018-02-02T04:52:13.634Z,89.32
2018-02-02T04:54:39.758Z,89.09
2018-02-02T04:57:05.928Z,89.82
2018-02-02T04:59:32.048Z,88.82
2018-02-02T05:01:58.231Z,88.77
2018-02-02T05:04:24.518Z,88.88
2018-02-02T05:06:50.683Z,89.34
2018-02-02T05:09:16.835Z,90.24
2018-02-02T05:11:43.039Z,90.47
2018-02-02T05:14:09.203Z,89.93
2018-02-02T05:16:35.339Z,90.45
2018-02-02T05:19:01.552Z,90.82
2018-02-02T05:21:27.764Z,90.47
2018-02-02T05:23:53.924Z,90.67
2018-02-02T05:26:20.099Z,90.40
2018-02-02T05:28:46.245Z,90.45
2018-02-02T05:31:12.386Z,90.37
2018-02-02T05:33:38.563Z,91.15
2018-02-02T05:36:04.727Z,90.41
2018-02-02T05:38:30.903Z,90.85
2018-02-02T05:40:57.088Z,90.61
2018-02-02T05:43:23.268Z,90.78
2018-02-02T05:45:49.407Z,90.75
2018-02-02T05:48:15.558Z,90.93
2018-02-02T05:50:41.739Z,90.48
2018-02-02T05:53:07.866Z,90.08
2018-02-02T05:55:34.030Z,89.99
2018-02-02T05:58:00.252Z,89.29
2018-02-02T06:00:26.406Z,89.37
2018-02-02T06:02:52.568Z,89.07
2018-02-02T06:05:18.718Z,88.38
2018-02-02T06:07:44.878Z,88.86
2018-02-02T06:10:11.067Z,89.37
2018-02-02T06:12:37.233Z,88.65
2018-02-02T06:15:03.409Z,88.66
2018-02-02T06:17:29.579Z,88.83
2018-02-02T06:19:55.809Z,89.07
2018-02-02T06:22:21.955Z,88.99
2018-02-02T06:24:48.165Z,89.49
2018-02-02T06:27:14.318Z,88.98
2018-02-02T06:29:40.464Z,88.70
2018-02-02T06:32:06.607Z,89.02
2018-02-02T06:34:32.768Z,88.88
2018-02-02T06:37:01.927Z,89.09
2018-02-02T06:39:28.168Z,88.69
2018-02-02T06:41:54.348Z,89.00
2018-02-02T06:44:20.475Z,88.47
2018-02-02T06:46:46.703Z,88.21
2018-02-02T06:49:12.894Z,88.37
2018-02-02T06:51:39.089Z,88.14
2018-02-02T06:54:05.335Z,88.54
2018-02-02T06:56:31.617Z,88.87
2018-02-02T06:58:57.773Z,88.41
2018-02-02T07:01:23.993Z,87.89
2018-02-02T07:03:50.166Z,88.52
2018-02-02T07:06:16.344Z,88.26
2018-02-02T07:08:42.566Z,88.47
2018-02-02T07:11:08.808Z,88.42
2018-02-02T07:13:34.942Z,88.29
2018-02-02T07:16:01.166Z,88.84
2018-02-02T07:18:27.350Z,88.34
2018-02-02T07:20:53.556Z,88.87
2018-02-02T07:23:19.696Z,88.70
2018-02-02T07:25:46.843Z,88.38
2018-02-02T07:28:12.979Z,88.53
2018-02-02T07:30:39.285Z,88.62
2018-02-02T07:33:05.431Z,88.61
2018-02-02T07:35:31.587Z,88.78
2018-02-02T07:37:57.854Z,88.48
2018-02-02T07:40:24.004Z,88.68
2018-02-02T07:42:50.161Z,88.10
2018-02-02T07:45:16.399Z,88.72
2018-02-02T07:47:42.550Z,88.13
2018-02-02T07:50:08.751Z,88.04
2018-02-02T07:52:34.975Z,88.32
2018-02-02T07:55:01.204Z,88.07
2018-02-02T07:57:27.403Z,88.29
2018-02-02T07:59:53.581Z,88.04
2018-02-02T08:02:19.863Z,87.98
2018-02-02T08:04:46.077Z,88.34
2018-02-02T08:07:12.225Z,88.01
2018-02-02T08:09:38.433Z,87.33
2018-02-02T08:12:04.617Z,87.59
2018-02-02T08:14:30.945Z,86.74
2018-02-02T08:16:57.094Z,86.63
2018-02-02T08:19:23.304Z,86.51
2018-02-02T08:21:49.529Z,86.68
2018-02-02T08:24:15.732Z,86.86
2018-02-02T08:26:41.870Z,87.22
2018-02-02T08:29:08.071Z,86.88
2018-02-02T08:31:34.278Z,86.19
2018-02-02T08:34:00.468Z,86.42
2018-02-02T08:36:26.674Z,86.25
2018-02-02T08:38:52.926Z,86.27
2018-02-02T08:41:19.023Z,86.32
2018-02-02T08:43:45.166Z,85.94
2018-02-02T08:46:11.296Z,85.77
2018-02-02T08:48:37.482Z,85.96
2018-02-02T08:51:03.669Z,85.73
2018-02-02T08:53:29.815Z,85.08
2018-02-02T08:55:55.922Z,85.18
2018-02-02T08:58:22.062Z,85.26
2018-02-02T09:00:54.310Z,85.08
2018-02-02T09:03:20.452Z,85.30
2018-02-02T09:05:46.640Z,85.01
2018-02-02T09:08:12.753Z,85.55
2018-02-02T09:10:38.925Z,85.29
2018-02-02T09:13:05.094Z,85.90
2018-02-02T09:15:33.381Z,85.40
2018-02-02T09:17:59.590Z,85.33
2018-02-02T09:20:25.792Z,85.29
2018-02-02T09:22:51.924Z,85.00
2018-02-02T09:25:18.192Z,85.47
2018-02-02T09:27:44.266Z,85.39
2018-02-02T09:30:10.479Z,85.08
2018-02-02T09:32:36.694Z,85.17
2018-02-02T09:35:02.938Z,85.34
2018-02-02T09:37:29.200Z,85.04
2018-02-02T09:39:55.408Z,85.74
2018-02-02T09:42:21.574Z,87.23
2018-02-02T09:44:47.779Z,87.08
2018-02-02T09:47:13.947Z,87.88
2018-02-02T09:49:40.137Z,87.89
2018-02-02T09:52:06.341Z,88.68
2018-02-02T09:54:32.516Z,87.11
2018-02-02T09:56:58.683Z,87.71
2018-02-02T09:59:24.788Z,87.49
2018-02-02T10:01:51.013Z,86.82
2018-02-02T10:04:17.168Z,85.96
2018-02-02T10:06:43.420Z,85.01
2018-02-02T10:09:09.660Z,86.31
2018-02-02T10:11:35.954Z,87.27
2018-02-02T10:14:02.106Z,88.37
2018-02-02T10:16:28.246Z,88.03
2018-02-02T10:18:54.428Z,88.92
2018-02-02T10:21:20.622Z,89.25
2018-02-02T10:23:46.753Z,89.32
2018-02-02T10:26:12.933Z,89.53
2018-02-02T10:28:39.170Z,90.06
2018-02-02T10:31:05.412Z,90.07
2018-02-02T10:33:31.540Z,89.92
2018-02-02T10:35:57.696Z,90.07
2018-02-02T10:38:23.852Z,90.34
2018-02-02T10:40:50.039Z,90.15
2018-02-02T10:43:16.186Z,90.60
2018-02-02T10:45:42.352Z,90.61
2018-02-02T10:48:08.515Z,90.46
2018-02-02T10:50:34.853Z,90.35
2018-02-02T10:53:00.995Z,89.78
2018-02-02T10:55:27.127Z,89.35
2018-02-02T10:57:53.270Z,88.12
2018-02-02T11:00:19.552Z,88.45
2018-02-02T11:02:51.843Z,87.74
2018-02-02T11:05:18.053Z,87.34
2018-02-02T11:07:44.302Z,87.76
2018-02-02T11:10:10.440Z,86.86
2018-02-02T11:12:36.733Z,86.73
2018-02-02T11:15:02.983Z,86.34
2018-02-02T11:17:29.177Z,86.58
2018-02-02T11:19:55.384Z,86.00
2018-02-02T11:22:21.593Z,86.27
2018-02-02T11:24:47.718Z,84.76
2018-02-02T11:27:13.864Z,85.37
2018-02-02T11:29:40.056Z,83.60
2018-02-02T11:32:06.487Z,83.24
2018-02-02T11:34:32.659Z,83.11
2018-02-02T11:36:58.875Z,83.52
2018-02-02T11:39:25.061Z,82.64
2018-02-02T11:41:51.181Z,81.89
2018-02-02T11:44:17.334Z,79.89
2018-02-02T11:46:43.469Z,82.12
2018-02-02T11:49:09.741Z,80.06
2018-02-02T11:51:35.964Z,80.62
2018-02-02T11:54:02.114Z,81.90
2018-02-02T11:56:28.278Z,80.50
2018-02-02T11:58:54.464Z,82.34
2018-02-02T12:01:20.664Z,81.87
2018-02-02T12:03:46.804Z,78.13
2018-02-02T12:06:12.996Z,77.26
2018-02-02T12:08:39.159Z,79.02
2018-02-02T12:11:05.301Z,81.47
2018-02-02T12:13:31.450Z,82.20
2018-02-02T12:15:57.765Z,82.64
2018-02-02T12:18:24.037Z,80.80
2018-02-02T12:20:50.289Z,76.62
2018-02-02T12:23:22.534Z,78.74
2018-02-02T12:25:54.620Z,78.73
2018-02-02T12:28:26.684Z,80.52
2018-02-02T12:30:58.950Z,81.65
2018-02-02T12:33:31.234Z,84.13
2018-02-02T12:35:58.449Z,83.12
2018-02-02T12:38:24.716Z,82.16
2018-02-02T12:40:50.866Z,82.49
2018-02-02T12:43:17.005Z,81.83
2018-02-02T12:45:43.198Z,78.00
2018-02-02T12:51:19.260Z,76.21
2018-02-02T12:53:45.439Z,76.09
2018-02-02T12:56:11.596Z,76.96
2018-02-02T12:58:37.807Z,76.42
2018-02-02T13:01:03.958Z,77.26
2018-02-02T13:03:30.084Z,76.63
2018-02-02T13:05:56.239Z,76.87
2018-02-02T13:08:22.453Z,76.33
2018-02-02T13:10:48.708Z,77.82
2018-02-02T13:13:14.903Z,78.40
2018-02-02T13:15:41.073Z,77.69
2018-02-02T13:18:07.205Z,78.04
2018-02-02T13:20:33.352Z,76.72
2018-02-02T13:22:59.441Z,75.40
2018-02-02T13:25:25.634Z,73.95
2018-02-02T13:27:51.786Z,76.52
2018-02-02T13:30:17.887Z,77.08
2018-02-02T13:32:43.979Z,77.77
2018-02-02T13:35:10.137Z,77.36
2018-02-02T13:37:36.412Z,75.20
2018-02-02T13:40:02.532Z,76.11
2018-02-02T13:42:28.632Z,75.95
2018-02-02T13:44:54.782Z,79.09
2018-02-02T13:47:20.917Z,80.60
2018-02-02T13:49:47.064Z,83.01
2018-02-02T13:52:13.167Z,83.93
2018-02-02T13:54:39.282Z,85.31
2018-02-02T13:57:05.386Z,83.83
2018-02-02T13:59:31.543Z,85.61
2018-02-02T14:01:57.665Z,85.74
2018-02-02T14:04:23.798Z,85.57
2018-02-02T14:06:49.930Z,85.92
2018-02-02T14:09:16.103Z,85.32
2018-02-02T14:11:42.226Z,82.57
2018-02-02T14:14:08.360Z,81.24
2018-02-02T14:16:34.493Z,81.69
2018-02-02T14:19:00.650Z,81.26
2018-02-02T14:21:26.793Z,80.39
2018-02-02T14:23:52.888Z,80.40
2018-02-02T14:26:19.029Z,79.57
2018-02-02T14:28:45.170Z,79.97
2018-02-02T14:31:11.301Z,80.02
2018-02-02T14:33:37.385Z,80.24
2018-02-02T14:36:03.523Z,78.39
2018-02-02T14:38:29.713Z,78.89
2018-02-02T14:40:55.832Z,78.88
2018-02-02T14:43:21.971Z,79.95
2018-02-02T14:45:48.115Z,79.71
2018-02-02T14:48:14.350Z,80.53
2018-02-02T14:50:40.470Z,80.74
2018-02-02T14:53:06.860Z,80.52
2018-02-02T14:55:33.042Z,80.31
2018-02-02T14:57:59.262Z,81.16
2018-02-02T15:00:25.433Z,81.38
2018-02-02T15:02:51.523Z,80.30
2018-02-02T15:05:17.647Z,82.26
2018-02-02T15:07:43.808Z,82.87
2018-02-02T15:10:10.198Z,82.13
2018-02-02T15:12:36.311Z,83.12
2018-02-02T15:15:02.490Z,83.94
2018-02-02T15:17:28.592Z,84.44
2018-02-02T15:19:54.821Z,84.84
2018-02-02T15:22:24.811Z,85.25
2018-02-02T15:24:50.931Z,85.17
2018-02-02T15:27:17.116Z,85.43
2018-02-02T15:29:43.295Z,86.17
2018-02-02T15:32:09.555Z,86.71
2018-02-02T15:34:35.705Z,87.18
2018-02-02T15:37:01.867Z,87.63
2018-02-02T15:39:28.075Z,87.66
2018-02-02T15:41:54.156Z,87.68
2018-02-02T15:44:20.357Z,87.43
2018-02-02T15:46:46.624Z,87.75
2018-02-02T15:49:12.832Z,87.54
2018-02-02T15:51:39.126Z,87.41
2018-02-02T15:54:05.251Z,87.65
2018-02-02T15:56:31.505Z,87.72
2018-02-02T15:58:57.693Z,87.06
2018-02-02T16:01:23.854Z,86.14
2018-02-02T16:03:50.083Z,86.16
2018-02-02T16:06:16.228Z,87.17
2018-02-02T16:08:42.431Z,87.54
2018-02-02T16:11:08.601Z,87.71
2018-02-02T16:13:34.781Z,88.31
2018-02-02T16:16:00.979Z,87.62
2018-02-02T16:18:27.183Z,87.23
2018-02-02T16:20:53.427Z,87.93
2018-02-02T16:23:19.558Z,88.35
2018-02-02T16:25:45.746Z,88.79
2018-02-02T16:28:11.899Z,89.18
2018-02-02T16:30:38.014Z,89.19
2018-02-02T16:33:04.318Z,89.16
2018-02-02T16:35:30.536Z,88.26
2018-02-02T16:37:56.751Z,88.55
2018-02-02T16:40:22.939Z,87.84
2018-02-02T16:42:49.097Z,88.34
2018-02-02T16:45:15.300Z,88.59
2018-02-02T16:47:41.452Z,88.48
2018-02-02T16:50:07.706Z,88.54
2018-02-02T16:52:33.824Z,88.45
2018-02-02T16:55:00.087Z,89.13
2018-02-02T16:57:26.209Z,89.64
2018-02-02T16:59:52.357Z,90.12
2018-02-02T17:02:18.484Z,90.08
2018-02-02T17:04:44.658Z,89.09
2018-02-02T17:07:10.803Z,88.90
2018-02-02T17:09:36.926Z,89.29
2018-02-02T17:12:03.122Z,89.03
2018-02-02T17:14:29.282Z,88.20
2018-02-02T17:16:55.455Z,87.92
2018-02-02T17:19:21.596Z,87.54
2018-02-02T17:21:47.729Z,87.64
2018-02-02T17:24:13.949Z,88.21
2018-02-02T17:26:40.110Z,88.30
2018-02-02T17:29:06.228Z,88.67
2018-02-02T17:31:32.389Z,88.90
2018-02-02T17:33:58.566Z,89.29
2018-02-02T17:36:24.727Z,89.68
2018-02-02T17:38:50.896Z,89.61
2018-02-02T17:41:17.045Z,89.85
2018-02-02T17:43:43.201Z,90.09
2018-02-02T17:46:09.391Z,90.36
2018-02-02T17:48:35.545Z,90.25
2018-02-02T17:51:01.712Z,90.39
2018-02-02T17:53:27.907Z,90.39
2018-02-02T17:55:54.063Z,90.69
2018-02-02T17:58:20.212Z,90.73
2018-02-02T18:00:59.294Z,90.79
2018-02-02T18:03:25.509Z,90.88
2018-02-02T18:05:51.701Z,91.08
2018-02-02T18:08:17.955Z,91.36
2018-02-02T18:10:44.112Z,91.67
2018-02-02T18:13:10.199Z,92.32
2018-02-02T18:15:36.376Z,92.84
2018-02-02T18:18:02.584Z,93.17
2018-02-02T18:20:28.727Z,93.26
2018-02-02T18:22:54.895Z,92.85
2018-02-02T18:25:21.183Z,91.88
2018-02-02T18:27:47.351Z,91.65
2018-02-02T18:30:13.509Z,91.40
2018-02-02T18:32:39.701Z,91.64
2018-02-02T18:35:05.892Z,91.54
2018-02-02T18:37:31.996Z,91.68
2018-02-02T18:39:58.274Z,91.52
2018-02-02T18:42:24.446Z,91.38
2018-02-02T18:44:52.270Z,91.34
2018-02-02T18:47:18.562Z,91.27
2018-02-02T18:49:44.756Z,91.83
2018-02-02T18:52:10.923Z,91.70
2018-02-02T18:54:37.224Z,91.83
2018-02-02T18:57:03.471Z,92.08
2018-02-02T18:59:29.620Z,92.45
2018-02-02T19:01:55.907Z,93.12
2018-02-02T19:04:22.146Z,93.28
2018-02-02T19:06:48.299Z,93.19
2018-02-02T19:09:14.513Z,92.98
2018-02-02T19:11:40.691Z,92.67
2018-02-02T19:14:06.885Z,92.61
2018-02-02T19:16:33.232Z,92.46
2018-02-02T19:19:00.045Z,92.44
2018-02-02T19:21:26.235Z,92.49
2018-02-02T19:23:52.400Z,92.57
2018-02-02T19:26:18.656Z,92.53
2018-02-02T19:28:44.846Z,92.64
2018-02-02T19:31:11.072Z,92.52
2018-02-02T19:33:37.385Z,92.40
2018-02-02T19:36:03.672Z,92.51
2018-02-02T19:38:29.879Z,92.64
2018-02-02T19:40:56.076Z,92.77
2018-02-02T19:43:22.466Z,92.82
2018-02-02T19:45:48.945Z,92.80
2018-02-02T19:48:21.627Z,92.78
2018-02-02T19:50:48.274Z,92.64
2018-02-02T19:53:14.635Z,92.52
2018-02-02T19:55:41.801Z,92.79
2018-02-02T19:58:08.004Z,93.09
2018-02-02T20:00:34.851Z,93.39
2018-02-02T20:03:01.180Z,93.67
2018-02-02T20:05:27.544Z,93.77
2018-02-02T20:07:53.708Z,93.82
2018-02-02T20:10:19.900Z,93.70
2018-02-02T20:12:46.064Z,93.50
2018-02-02T20:15:12.314Z,93.50
2018-02-02T20:17:38.484Z,93.48
2018-02-02T20:20:04.768Z,93.48
2018-02-02T20:22:30.952Z,93.35
2018-02-02T20:24:57.162Z,93.24
2018-02-02T20:27:23.328Z,93.08
2018-02-02T20:29:49.467Z,92.94
2018-02-02T20:32:15.669Z,93.01
2018-02-02T20:34:41.813Z,92.98
2018-02-02T20:37:08.022Z,93.05
2018-02-02T20:39:34.209Z,93.10
2018-02-02T20:42:01.780Z,93.12
2018-02-02T20:44:27.957Z,93.19
2018-02-02T20:46:54.163Z,93.18
2018-02-02T20:49:20.324Z,93.14
2018-02-02T20:51:46.528Z,93.07
2018-02-02T20:54:12.727Z,93.05
2018-02-02T20:56:38.954Z,93.07
2018-02-02T20:59:05.159Z,93.02
2018-02-02T21:01:31.399Z,93.06
2018-02-02T21:03:57.530Z,93.04
2018-02-02T21:06:23.785Z,93.06
2018-02-02T21:08:49.995Z,93.43
2018-02-02T21:11:16.188Z,93.33
2018-02-02T21:13:42.363Z,93.12
2018-02-02T21:16:08.624Z,92.91
2018-02-02T21:18:35.517Z,92.84
2018-02-02T21:21:01.722Z,92.80
2018-02-02T21:23:27.990Z,92.70
2018-02-02T21:25:54.145Z,92.76
2018-02-02T21:28:20.349Z,92.73
2018-02-02T21:30:46.539Z,92.78
2018-02-02T21:33:12.661Z,92.90
2018-02-02T21:35:38.795Z,93.11
2018-02-02T21:38:05.021Z,93.22
2018-02-02T21:40:31.171Z,93.26
2018-02-02T21:42:57.474Z,93.16
2018-02-02T21:45:23.734Z,93.17
2018-02-02T21:47:50.013Z,93.15
2018-02-02T21:50:16.170Z,93.24
2018-02-02T21:52:42.387Z,93.44
2018-02-02T21:55:08.550Z,93.44
2018-02-02T21:57:34.728Z,93.36
2018-02-02T22:00:00.975Z,93.52
2018-02-02T22:02:27.091Z,93.54
2018-02-02T22:04:53.320Z,93.85
2018-02-02T22:07:19.499Z,93.68
2018-02-02T22:09:46.453Z,93.51
2018-02-02T22:12:12.591Z,93.40
2018-02-02T22:14:38.791Z,93.20
2018-02-02T22:17:04.998Z,93.10
2018-02-02T22:19:31.216Z,93.15
2018-02-02T22:21:57.392Z,93.28
2018-02-02T22:24:23.584Z,93.27
2018-02-02T22:26:49.747Z,93.20
2018-02-02T22:29:16.124Z,93.25
2018-02-02T22:31:42.274Z,93.30
2018-02-02T22:34:08.523Z,93.61
2018-02-02T22:36:34.697Z,93.56
2018-02-02T22:39:00.913Z,93.47
2018-02-02T22:41:27.072Z,93.48
2018-02-02T22:43:53.300Z,93.52
2018-02-02T22:46:19.503Z,93.69
2018-02-02T22:48:46.435Z,93.58
2018-02-02T22:51:12.586Z,93.80
2018-02-02T22:53:38.756Z,93.78
2018-02-02T22:56:04.937Z,93.78
2018-02-02T22:58:31.179Z,93.95
2018-02-02T23:00:57.304Z,94.07
2018-02-02T23:03:23.434Z,94.31
2018-02-02T23:05:49.587Z,94.35
2018-02-02T23:08:15.870Z,94.39
2018-02-02T23:10:42.637Z,94.59
2018-02-02T23:13:08.824Z,94.87
2018-02-02T23:15:35.021Z,94.93
2018-02-02T23:18:01.155Z,94.87
2018-02-02T23:20:27.361Z,94.85
2018-02-02T23:22:53.493Z,94.90
2018-02-02T23:25:19.649Z,94.94
2018-02-02T23:27:45.853Z,94.99
2018-02-02T23:30:18.927Z,94.98
2018-02-02T23:32:45.059Z,94.93
2018-02-02T23:35:11.242Z,95.06
2018-02-02T23:37:37.482Z,95.04
2018-02-02T23:40:03.712Z,94.99
2018-02-02T23:42:29.871Z,94.91
2018-02-02T23:44:56.081Z,94.92
2018-02-02T23:47:22.189Z,94.89
2018-02-02T23:49:48.450Z,94.90
2018-02-02T23:52:14.617Z,94.97
2018-02-02T23:54:40.761Z,94.99
2018-02-02T23:57:06.977Z,94.98
2018-02-02T23:59:33.174Z,94.96
